sensor_id;sensor_type;location;lat;lon;timestamp;P1;durP1;ratioP1;P2;durP2;ratioP2
36651;SDS011;53334;51.976;20.144;2024-02-04T00:00:48;5.45;;;3.00;;
36651;SDS011;53334;51.976;20.144;2024-02-04T00:03:22;4.70;;;2.70;;
36651;SDS011;53334;51.976;20.144;2024-02-04T00:05:55;5.30;;;2.63;;
36651;SDS011;53334;51.976;20.144;2024-02-04T00:08:29;3.97;;;3.05;;
36651;SDS011;53334;51.976;20.144;2024-02-04T00:11:03;5.40;;;3.15;;
36651;SDS011;53334;51.976;20.144;2024-02-04T00:13:39;4.53;;;3.15;;
36651;SDS011;53334;51.976;20.144;2024-02-04T00:16:12;5.55;;;2.70;;
36651;SDS011;53334;51.976;20.144;2024-02-04T00:18:45;4.65;;;2.78;;
36651;SDS011;53334;51.976;20.144;2024-02-04T00:21:19;4.93;;;3.17;;
36651;SDS011;53334;51.976;20.144;2024-02-04T00:23:52;4.40;;;2.83;;
36651;SDS011;53334;51.976;20.144;2024-02-04T00:26:27;7.68;;;3.28;;
36651;SDS011;53334;51.976;20.144;2024-02-04T00:29:00;5.88;;;3.33;;
36651;SDS011;53334;51.976;20.144;2024-02-04T00:31:33;3.63;;;2.80;;
36651;SDS011;53334;51.976;20.144;2024-02-04T00:34:07;4.22;;;2.55;;
36651;SDS011;53334;51.976;20.144;2024-02-04T00:36:40;5.90;;;2.58;;
36651;SDS011;53334;51.976;20.144;2024-02-04T00:39:13;6.65;;;3.47;;
36651;SDS011;53334;51.976;20.144;2024-02-04T00:41:48;4.20;;;2.95;;
36651;SDS011;53334;51.976;20.144;2024-02-04T00:44:22;3.00;;;2.40;;
36651;SDS011;53334;51.976;20.144;2024-02-04T00:46:55;6.50;;;3.35;;
36651;SDS011;53334;51.976;20.144;2024-02-04T00:49:28;5.88;;;3.58;;
36651;SDS011;53334;51.976;20.144;2024-02-04T00:52:02;4.75;;;2.38;;
36651;SDS011;53334;51.976;20.144;2024-02-04T00:54:36;4.70;;;3.00;;
36651;SDS011;53334;51.976;20.144;2024-02-04T00:57:11;5.20;;;3.10;;
36651;SDS011;53334;51.976;20.144;2024-02-04T00:59:44;5.40;;;3.00;;
36651;SDS011;53334;51.976;20.144;2024-02-04T01:02:17;4.20;;;2.72;;
36651;SDS011;53334;51.976;20.144;2024-02-04T01:04:50;4.32;;;2.53;;
36651;SDS011;53334;51.976;20.144;2024-02-04T01:09:57;4.40;;;2.90;;
36651;SDS011;53334;51.976;20.144;2024-02-04T01:12:32;4.18;;;2.85;;
36651;SDS011;53334;51.976;20.144;2024-02-04T01:15:06;5.05;;;2.72;;
36651;SDS011;53334;51.976;20.144;2024-02-04T01:17:39;7.40;;;3.03;;
36651;SDS011;53334;51.976;20.144;2024-02-04T01:20:13;5.50;;;3.20;;
36651;SDS011;53334;51.976;20.144;2024-02-04T01:22:46;5.35;;;2.78;;
36651;SDS011;53334;51.976;20.144;2024-02-04T01:25:20;3.70;;;2.40;;
36651;SDS011;53334;51.976;20.144;2024-02-04T01:27:54;5.03;;;3.05;;
36651;SDS011;53334;51.976;20.144;2024-02-04T01:30:28;4.38;;;2.65;;
36651;SDS011;53334;51.976;20.144;2024-02-04T01:33:03;5.60;;;2.63;;
36651;SDS011;53334;51.976;20.144;2024-02-04T01:35:38;5.03;;;2.75;;
36651;SDS011;53334;51.976;20.144;2024-02-04T01:38:11;4.13;;;2.40;;
36651;SDS011;53334;51.976;20.144;2024-02-04T01:40:44;4.43;;;2.67;;
36651;SDS011;53334;51.976;20.144;2024-02-04T01:43:19;4.97;;;2.58;;
36651;SDS011;53334;51.976;20.144;2024-02-04T01:45:54;5.05;;;2.58;;
36651;SDS011;53334;51.976;20.144;2024-02-04T01:48:27;5.25;;;2.50;;
36651;SDS011;53334;51.976;20.144;2024-02-04T01:51:01;6.38;;;2.72;;
36651;SDS011;53334;51.976;20.144;2024-02-04T01:53:36;4.10;;;2.75;;
36651;SDS011;53334;51.976;20.144;2024-02-04T01:56:11;5.70;;;3.63;;
36651;SDS011;53334;51.976;20.144;2024-02-04T01:58:47;3.75;;;2.58;;
36651;SDS011;53334;51.976;20.144;2024-02-04T02:01:21;5.43;;;2.80;;
36651;SDS011;53334;51.976;20.144;2024-02-04T02:03:55;4.63;;;3.10;;
36651;SDS011;53334;51.976;20.144;2024-02-04T02:06:29;4.28;;;2.22;;
36651;SDS011;53334;51.976;20.144;2024-02-04T02:09:03;4.45;;;2.35;;
36651;SDS011;53334;51.976;20.144;2024-02-04T02:11:40;3.88;;;2.45;;
36651;SDS011;53334;51.976;20.144;2024-02-04T02:14:16;3.45;;;2.05;;
36651;SDS011;53334;51.976;20.144;2024-02-04T02:16:55;5.55;;;2.63;;
36651;SDS011;53334;51.976;20.144;2024-02-04T02:19:34;9.38;;;2.90;;
36651;SDS011;53334;51.976;20.144;2024-02-04T02:22:21;4.93;;;2.53;;
36651;SDS011;53334;51.976;20.144;2024-02-04T02:25:00;4.65;;;2.17;;
36651;SDS011;53334;51.976;20.144;2024-02-04T02:27:45;3.17;;;2.28;;
36651;SDS011;53334;51.976;20.144;2024-02-04T02:30:19;5.80;;;2.95;;
36651;SDS011;53334;51.976;20.144;2024-02-04T02:32:52;9.13;;;2.40;;
36651;SDS011;53334;51.976;20.144;2024-02-04T02:35:26;4.15;;;2.92;;
36651;SDS011;53334;51.976;20.144;2024-02-04T02:38:02;4.80;;;2.58;;
36651;SDS011;53334;51.976;20.144;2024-02-04T02:40:45;3.60;;;2.30;;
36651;SDS011;53334;51.976;20.144;2024-02-04T02:43:21;6.35;;;2.58;;
36651;SDS011;53334;51.976;20.144;2024-02-04T02:45:55;6.82;;;2.70;;
36651;SDS011;53334;51.976;20.144;2024-02-04T02:48:29;3.55;;;2.30;;
36651;SDS011;53334;51.976;20.144;2024-02-04T02:51:02;4.18;;;2.53;;
36651;SDS011;53334;51.976;20.144;2024-02-04T02:53:37;3.28;;;2.08;;
36651;SDS011;53334;51.976;20.144;2024-02-04T02:56:12;3.67;;;2.47;;
36651;SDS011;53334;51.976;20.144;2024-02-04T02:58:45;3.15;;;2.33;;
36651;SDS011;53334;51.976;20.144;2024-02-04T03:01:18;4.38;;;2.60;;
36651;SDS011;53334;51.976;20.144;2024-02-04T03:03:52;4.18;;;2.63;;
36651;SDS011;53334;51.976;20.144;2024-02-04T03:06:25;2.80;;;2.00;;
36651;SDS011;53334;51.976;20.144;2024-02-04T03:08:58;3.47;;;2.40;;
36651;SDS011;53334;51.976;20.144;2024-02-04T03:11:33;3.53;;;2.55;;
36651;SDS011;53334;51.976;20.144;2024-02-04T03:14:08;3.20;;;2.38;;
36651;SDS011;53334;51.976;20.144;2024-02-04T03:16:42;5.38;;;2.30;;
36651;SDS011;53334;51.976;20.144;2024-02-04T03:19:16;4.35;;;2.15;;
36651;SDS011;53334;51.976;20.144;2024-02-04T03:21:49;4.05;;;2.75;;
36651;SDS011;53334;51.976;20.144;2024-02-04T03:24:23;5.28;;;2.25;;
36651;SDS011;53334;51.976;20.144;2024-02-04T03:26:57;2.72;;;2.10;;
36651;SDS011;53334;51.976;20.144;2024-02-04T03:29:31;7.93;;;2.45;;
36651;SDS011;53334;51.976;20.144;2024-02-04T03:32:04;3.00;;;2.20;;
36651;SDS011;53334;51.976;20.144;2024-02-04T03:37:14;4.32;;;2.42;;
36651;SDS011;53334;51.976;20.144;2024-02-04T03:39:47;3.85;;;2.70;;
36651;SDS011;53334;51.976;20.144;2024-02-04T03:42:22;3.88;;;2.30;;
36651;SDS011;53334;51.976;20.144;2024-02-04T03:44:56;3.50;;;2.00;;
36651;SDS011;53334;51.976;20.144;2024-02-04T03:47:29;4.38;;;2.38;;
36651;SDS011;53334;51.976;20.144;2024-02-04T03:50:03;3.85;;;2.58;;
36651;SDS011;53334;51.976;20.144;2024-02-04T03:52:36;3.92;;;2.10;;
36651;SDS011;53334;51.976;20.144;2024-02-04T03:55:10;6.53;;;2.42;;
36651;SDS011;53334;51.976;20.144;2024-02-04T03:57:45;4.38;;;2.10;;
36651;SDS011;53334;51.976;20.144;2024-02-04T04:00:19;3.33;;;2.15;;
36651;SDS011;53334;51.976;20.144;2024-02-04T04:05:25;3.38;;;2.15;;
36651;SDS011;53334;51.976;20.144;2024-02-04T04:07:59;5.80;;;2.63;;
36651;SDS011;53334;51.976;20.144;2024-02-04T04:10:32;4.60;;;2.30;;
36651;SDS011;53334;51.976;20.144;2024-02-04T04:13:07;3.03;;;1.70;;
36651;SDS011;53334;51.976;20.144;2024-02-04T04:15:41;3.83;;;2.42;;
36651;SDS011;53334;51.976;20.144;2024-02-04T04:18:14;3.28;;;2.13;;
36651;SDS011;53334;51.976;20.144;2024-02-04T04:20:48;2.78;;;1.95;;
36651;SDS011;53334;51.976;20.144;2024-02-04T04:23:21;5.15;;;2.15;;
36651;SDS011;53334;51.976;20.144;2024-02-04T04:25:54;5.47;;;2.63;;
36651;SDS011;53334;51.976;20.144;2024-02-04T04:28:29;4.07;;;2.20;;
36651;SDS011;53334;51.976;20.144;2024-02-04T04:31:02;4.65;;;1.88;;
36651;SDS011;53334;51.976;20.144;2024-02-04T04:36:09;3.20;;;2.20;;
36651;SDS011;53334;51.976;20.144;2024-02-04T04:38:43;3.60;;;2.00;;
36651;SDS011;53334;51.976;20.144;2024-02-04T04:41:16;3.22;;;2.10;;
36651;SDS011;53334;51.976;20.144;2024-02-04T04:43:50;3.95;;;2.45;;
36651;SDS011;53334;51.976;20.144;2024-02-04T04:46:24;5.10;;;1.90;;
36651;SDS011;53334;51.976;20.144;2024-02-04T04:48:57;2.65;;;2.00;;
36651;SDS011;53334;51.976;20.144;2024-02-04T04:51:31;4.00;;;1.92;;
36651;SDS011;53334;51.976;20.144;2024-02-04T04:54:05;3.40;;;2.03;;
36651;SDS011;53334;51.976;20.144;2024-02-04T04:56:38;2.80;;;2.03;;
36651;SDS011;53334;51.976;20.144;2024-02-04T04:59:16;3.40;;;2.40;;
36651;SDS011;53334;51.976;20.144;2024-02-04T05:01:49;4.65;;;2.35;;
36651;SDS011;53334;51.976;20.144;2024-02-04T05:06:57;3.60;;;2.20;;
36651;SDS011;53334;51.976;20.144;2024-02-04T05:09:30;3.28;;;1.85;;
36651;SDS011;53334;51.976;20.144;2024-02-04T05:12:04;4.40;;;2.10;;
36651;SDS011;53334;51.976;20.144;2024-02-04T05:14:40;3.95;;;1.75;;
36651;SDS011;53334;51.976;20.144;2024-02-04T05:17:14;4.95;;;2.08;;
36651;SDS011;53334;51.976;20.144;2024-02-04T05:19:47;2.72;;;1.70;;
36651;SDS011;53334;51.976;20.144;2024-02-04T05:22:21;2.90;;;2.00;;
36651;SDS011;53334;51.976;20.144;2024-02-04T05:24:54;3.50;;;2.25;;
36651;SDS011;53334;51.976;20.144;2024-02-04T05:27:27;3.13;;;2.00;;
36651;SDS011;53334;51.976;20.144;2024-02-04T05:30:03;3.75;;;2.30;;
36651;SDS011;53334;51.976;20.144;2024-02-04T05:32:37;2.28;;;1.55;;
36651;SDS011;53334;51.976;20.144;2024-02-04T05:35:10;4.28;;;2.10;;
36651;SDS011;53334;51.976;20.144;2024-02-04T05:37:44;3.75;;;2.00;;
36651;SDS011;53334;51.976;20.144;2024-02-04T05:40:17;5.10;;;2.30;;
36651;SDS011;53334;51.976;20.144;2024-02-04T05:42:52;4.45;;;1.90;;
36651;SDS011;53334;51.976;20.144;2024-02-04T05:45:27;3.10;;;1.90;;
36651;SDS011;53334;51.976;20.144;2024-02-04T05:48:00;2.05;;;1.67;;
36651;SDS011;53334;51.976;20.144;2024-02-04T05:50:33;3.45;;;2.05;;
36651;SDS011;53334;51.976;20.144;2024-02-04T05:53:07;4.10;;;1.98;;
36651;SDS011;53334;51.976;20.144;2024-02-04T05:55:41;5.00;;;2.00;;
36651;SDS011;53334;51.976;20.144;2024-02-04T05:58:14;4.90;;;2.55;;
36651;SDS011;53334;51.976;20.144;2024-02-04T06:00:48;2.67;;;2.03;;
36651;SDS011;53334;51.976;20.144;2024-02-04T06:03:22;5.57;;;2.33;;
36651;SDS011;53334;51.976;20.144;2024-02-04T06:05:55;3.70;;;2.30;;
36651;SDS011;53334;51.976;20.144;2024-02-04T06:08:29;5.13;;;2.00;;
36651;SDS011;53334;51.976;20.144;2024-02-04T06:11:02;5.15;;;1.90;;
36651;SDS011;53334;51.976;20.144;2024-02-04T06:13:35;3.63;;;2.15;;
36651;SDS011;53334;51.976;20.144;2024-02-04T06:16:10;3.28;;;1.95;;
36651;SDS011;53334;51.976;20.144;2024-02-04T06:18:44;2.80;;;1.70;;
36651;SDS011;53334;51.976;20.144;2024-02-04T06:21:18;2.85;;;1.70;;
36651;SDS011;53334;51.976;20.144;2024-02-04T06:23:51;3.20;;;2.03;;
36651;SDS011;53334;51.976;20.144;2024-02-04T06:26:24;5.28;;;2.13;;
36651;SDS011;53334;51.976;20.144;2024-02-04T06:28:58;3.00;;;2.25;;
36651;SDS011;53334;51.976;20.144;2024-02-04T06:31:32;2.80;;;1.98;;
36651;SDS011;53334;51.976;20.144;2024-02-04T06:34:05;6.53;;;2.20;;
36651;SDS011;53334;51.976;20.144;2024-02-04T06:36:41;5.47;;;1.73;;
36651;SDS011;53334;51.976;20.144;2024-02-04T06:39:15;2.22;;;1.50;;
36651;SDS011;53334;51.976;20.144;2024-02-04T06:41:49;2.28;;;1.80;;
36651;SDS011;53334;51.976;20.144;2024-02-04T06:44:22;2.70;;;1.70;;
36651;SDS011;53334;51.976;20.144;2024-02-04T06:46:57;3.78;;;1.92;;
36651;SDS011;53334;51.976;20.144;2024-02-04T06:49:30;5.90;;;1.77;;
36651;SDS011;53334;51.976;20.144;2024-02-04T06:52:04;3.72;;;1.67;;
36651;SDS011;53334;51.976;20.144;2024-02-04T06:54:37;3.40;;;1.88;;
36651;SDS011;53334;51.976;20.144;2024-02-04T06:57:11;5.47;;;2.10;;
36651;SDS011;53334;51.976;20.144;2024-02-04T06:59:44;5.60;;;2.28;;
36651;SDS011;53334;51.976;20.144;2024-02-04T07:02:18;6.88;;;2.78;;
36651;SDS011;53334;51.976;20.144;2024-02-04T07:04:52;3.72;;;2.10;;
36651;SDS011;53334;51.976;20.144;2024-02-04T07:07:25;7.95;;;2.22;;
36651;SDS011;53334;51.976;20.144;2024-02-04T07:09:59;2.78;;;1.95;;
36651;SDS011;53334;51.976;20.144;2024-02-04T07:12:32;5.18;;;2.13;;
36651;SDS011;53334;51.976;20.144;2024-02-04T07:15:06;3.47;;;1.90;;
36651;SDS011;53334;51.976;20.144;2024-02-04T07:17:41;4.38;;;2.15;;
36651;SDS011;53334;51.976;20.144;2024-02-04T07:20:14;3.65;;;2.08;;
36651;SDS011;53334;51.976;20.144;2024-02-04T07:22:48;4.00;;;2.13;;
36651;SDS011;53334;51.976;20.144;2024-02-04T07:25:21;4.68;;;2.10;;
36651;SDS011;53334;51.976;20.144;2024-02-04T07:27:55;4.00;;;1.98;;
36651;SDS011;53334;51.976;20.144;2024-02-04T07:30:30;3.88;;;2.22;;
36651;SDS011;53334;51.976;20.144;2024-02-04T07:33:04;4.53;;;2.10;;
36651;SDS011;53334;51.976;20.144;2024-02-04T07:35:38;6.82;;;2.60;;
36651;SDS011;53334;51.976;20.144;2024-02-04T07:38:11;3.28;;;2.47;;
36651;SDS011;53334;51.976;20.144;2024-02-04T07:40:44;6.13;;;2.20;;
36651;SDS011;53334;51.976;20.144;2024-02-04T07:43:18;8.63;;;2.25;;
36651;SDS011;53334;51.976;20.144;2024-02-04T07:45:51;4.78;;;2.40;;
36651;SDS011;53334;51.976;20.144;2024-02-04T07:48:26;11.55;;;2.63;;
36651;SDS011;53334;51.976;20.144;2024-02-04T07:50:59;9.77;;;2.33;;
36651;SDS011;53334;51.976;20.144;2024-02-04T07:53:33;5.65;;;2.25;;
36651;SDS011;53334;51.976;20.144;2024-02-04T07:56:07;8.30;;;2.33;;
36651;SDS011;53334;51.976;20.144;2024-02-04T07:58:42;8.43;;;2.17;;
36651;SDS011;53334;51.976;20.144;2024-02-04T08:01:15;13.18;;;2.42;;
36651;SDS011;53334;51.976;20.144;2024-02-04T08:03:52;5.22;;;2.25;;
36651;SDS011;53334;51.976;20.144;2024-02-04T08:06:25;6.75;;;2.30;;
36651;SDS011;53334;51.976;20.144;2024-02-04T08:08:59;8.90;;;2.50;;
36651;SDS011;53334;51.976;20.144;2024-02-04T08:11:32;16.65;;;2.63;;
36651;SDS011;53334;51.976;20.144;2024-02-04T08:14:05;3.25;;;2.15;;
36651;SDS011;53334;51.976;20.144;2024-02-04T08:16:38;6.85;;;2.30;;
36651;SDS011;53334;51.976;20.144;2024-02-04T08:19:15;17.40;;;2.65;;
36651;SDS011;53334;51.976;20.144;2024-02-04T08:21:49;14.35;;;3.10;;
36651;SDS011;53334;51.976;20.144;2024-02-04T08:24:22;8.23;;;2.58;;
36651;SDS011;53334;51.976;20.144;2024-02-04T08:26:55;6.15;;;2.78;;
36651;SDS011;53334;51.976;20.144;2024-02-04T08:29:29;12.48;;;2.55;;
36651;SDS011;53334;51.976;20.144;2024-02-04T08:32:02;6.57;;;2.78;;
36651;SDS011;53334;51.976;20.144;2024-02-04T08:37:10;9.50;;;2.72;;
36651;SDS011;53334;51.976;20.144;2024-02-04T08:39:44;14.52;;;2.72;;
36651;SDS011;53334;51.976;20.144;2024-02-04T08:42:17;12.32;;;2.72;;
36651;SDS011;53334;51.976;20.144;2024-02-04T08:44:50;11.35;;;3.28;;
36651;SDS011;53334;51.976;20.144;2024-02-04T08:47:23;5.90;;;2.58;;
36651;SDS011;53334;51.976;20.144;2024-02-04T08:49:58;15.35;;;2.90;;
36651;SDS011;53334;51.976;20.144;2024-02-04T08:52:32;14.10;;;3.72;;
36651;SDS011;53334;51.976;20.144;2024-02-04T08:55:05;5.60;;;2.42;;
36651;SDS011;53334;51.976;20.144;2024-02-04T08:57:39;7.68;;;2.83;;
36651;SDS011;53334;51.976;20.144;2024-02-04T09:00:13;11.20;;;2.88;;
36651;SDS011;53334;51.976;20.144;2024-02-04T09:02:47;19.17;;;4.75;;
36651;SDS011;53334;51.976;20.144;2024-02-04T09:05:22;27.40;;;5.90;;
36651;SDS011;53334;51.976;20.144;2024-02-04T09:07:55;25.65;;;6.38;;
36651;SDS011;53334;51.976;20.144;2024-02-04T09:10:28;17.70;;;5.63;;
36651;SDS011;53334;51.976;20.144;2024-02-04T09:13:02;12.65;;;4.43;;
36651;SDS011;53334;51.976;20.144;2024-02-04T09:15:35;21.83;;;5.88;;
36651;SDS011;53334;51.976;20.144;2024-02-04T09:18:09;15.43;;;4.75;;
36651;SDS011;53334;51.976;20.144;2024-02-04T09:20:43;18.92;;;4.85;;
36651;SDS011;53334;51.976;20.144;2024-02-04T09:23:17;14.18;;;5.32;;
36651;SDS011;53334;51.976;20.144;2024-02-04T09:25:50;20.10;;;4.93;;
36651;SDS011;53334;51.976;20.144;2024-02-04T09:28:24;21.00;;;5.20;;
36651;SDS011;53334;51.976;20.144;2024-02-04T09:30:58;17.10;;;5.10;;
36651;SDS011;53334;51.976;20.144;2024-02-04T09:33:31;15.77;;;4.75;;
36651;SDS011;53334;51.976;20.144;2024-02-04T09:38:40;12.55;;;4.43;;
36651;SDS011;53334;51.976;20.144;2024-02-04T09:41:13;17.38;;;5.38;;
36651;SDS011;53334;51.976;20.144;2024-02-04T09:43:46;11.32;;;5.13;;
36651;SDS011;53334;51.976;20.144;2024-02-04T09:46:20;12.82;;;4.93;;
36651;SDS011;53334;51.976;20.144;2024-02-04T09:48:53;20.40;;;4.90;;
36651;SDS011;53334;51.976;20.144;2024-02-04T09:51:29;11.88;;;4.90;;
36651;SDS011;53334;51.976;20.144;2024-02-04T09:54:04;12.32;;;5.05;;
36651;SDS011;53334;51.976;20.144;2024-02-04T09:56:38;13.98;;;4.65;;
36651;SDS011;53334;51.976;20.144;2024-02-04T09:59:13;14.65;;;4.93;;
36651;SDS011;53334;51.976;20.144;2024-02-04T10:01:47;12.25;;;4.53;;
36651;SDS011;53334;51.976;20.144;2024-02-04T10:04:21;11.75;;;4.57;;
36651;SDS011;53334;51.976;20.144;2024-02-04T10:06:55;12.20;;;4.55;;
36651;SDS011;53334;51.976;20.144;2024-02-04T10:09:29;11.98;;;4.53;;
36651;SDS011;53334;51.976;20.144;2024-02-04T10:12:03;9.32;;;3.83;;
36651;SDS011;53334;51.976;20.144;2024-02-04T10:14:37;10.80;;;3.95;;
36651;SDS011;53334;51.976;20.144;2024-02-04T10:17:10;12.75;;;4.63;;
36651;SDS011;53334;51.976;20.144;2024-02-04T10:19:47;11.60;;;4.50;;
36651;SDS011;53334;51.976;20.144;2024-02-04T10:22:22;9.73;;;4.38;;
36651;SDS011;53334;51.976;20.144;2024-02-04T10:25:05;10.88;;;4.65;;
36651;SDS011;53334;51.976;20.144;2024-02-04T10:27:40;7.82;;;4.47;;
36651;SDS011;53334;51.976;20.144;2024-02-04T10:30:14;11.15;;;4.97;;
36651;SDS011;53334;51.976;20.144;2024-02-04T10:32:47;16.85;;;5.65;;
36651;SDS011;53334;51.976;20.144;2024-02-04T10:35:23;13.20;;;4.55;;
36651;SDS011;53334;51.976;20.144;2024-02-04T10:37:58;10.65;;;4.93;;
36651;SDS011;53334;51.976;20.144;2024-02-04T10:40:31;10.25;;;4.28;;
36651;SDS011;53334;51.976;20.144;2024-02-04T10:43:04;8.52;;;3.83;;
36651;SDS011;53334;51.976;20.144;2024-02-04T10:45:38;11.65;;;4.25;;
36651;SDS011;53334;51.976;20.144;2024-02-04T10:48:15;14.27;;;4.38;;
36651;SDS011;53334;51.976;20.144;2024-02-04T10:50:51;11.80;;;5.63;;
36651;SDS011;53334;51.976;20.144;2024-02-04T10:53:32;18.95;;;6.85;;
36651;SDS011;53334;51.976;20.144;2024-02-04T10:56:07;16.77;;;4.93;;
36651;SDS011;53334;51.976;20.144;2024-02-04T10:58:44;13.90;;;5.38;;
36651;SDS011;53334;51.976;20.144;2024-02-04T11:01:19;15.05;;;5.10;;
36651;SDS011;53334;51.976;20.144;2024-02-04T11:03:53;17.50;;;5.68;;
36651;SDS011;53334;51.976;20.144;2024-02-04T11:06:28;19.00;;;5.38;;
36651;SDS011;53334;51.976;20.144;2024-02-04T11:09:04;18.50;;;6.03;;
36651;SDS011;53334;51.976;20.144;2024-02-04T11:11:40;15.35;;;5.55;;
36651;SDS011;53334;51.976;20.144;2024-02-04T11:19:47;21.33;;;5.63;;
36651;SDS011;53334;51.976;20.144;2024-02-04T11:22:33;21.70;;;5.82;;
36651;SDS011;53334;51.976;20.144;2024-02-04T11:25:41;21.08;;;5.63;;
36651;SDS011;53334;51.976;20.144;2024-02-04T11:28:17;19.35;;;6.28;;
36651;SDS011;53334;51.976;20.144;2024-02-04T11:30:51;17.08;;;5.03;;
36651;SDS011;53334;51.976;20.144;2024-02-04T11:36:02;14.93;;;5.78;;
36651;SDS011;53334;51.976;20.144;2024-02-04T11:38:37;14.65;;;5.20;;
36651;SDS011;53334;51.976;20.144;2024-02-04T11:41:20;21.00;;;5.82;;
36651;SDS011;53334;51.976;20.144;2024-02-04T11:43:55;15.40;;;5.00;;
36651;SDS011;53334;51.976;20.144;2024-02-04T11:46:33;17.50;;;5.32;;
36651;SDS011;53334;51.976;20.144;2024-02-04T11:49:14;19.95;;;5.75;;
36651;SDS011;53334;51.976;20.144;2024-02-04T11:51:50;26.33;;;6.55;;
36651;SDS011;53334;51.976;20.144;2024-02-04T11:54:25;15.82;;;5.65;;
36651;SDS011;53334;51.976;20.144;2024-02-04T11:57:00;21.25;;;5.72;;
36651;SDS011;53334;51.976;20.144;2024-02-04T11:59:33;26.65;;;6.18;;
36651;SDS011;53334;51.976;20.144;2024-02-04T12:02:07;30.00;;;6.78;;
36651;SDS011;53334;51.976;20.144;2024-02-04T12:04:41;31.95;;;5.60;;
36651;SDS011;53334;51.976;20.144;2024-02-04T12:07:15;23.42;;;5.88;;
36651;SDS011;53334;51.976;20.144;2024-02-04T12:09:50;21.30;;;5.63;;
36651;SDS011;53334;51.976;20.144;2024-02-04T12:12:26;23.65;;;6.47;;
36651;SDS011;53334;51.976;20.144;2024-02-04T12:15:00;17.27;;;5.68;;
36651;SDS011;53334;51.976;20.144;2024-02-04T12:17:35;32.60;;;7.68;;
36651;SDS011;53334;51.976;20.144;2024-02-04T12:20:09;23.60;;;6.35;;
36651;SDS011;53334;51.976;20.144;2024-02-04T12:22:43;41.35;;;7.10;;
36651;SDS011;53334;51.976;20.144;2024-02-04T12:25:16;40.72;;;7.03;;
36651;SDS011;53334;51.976;20.144;2024-02-04T12:27:52;16.52;;;4.88;;
36651;SDS011;53334;51.976;20.144;2024-02-04T12:30:26;10.40;;;5.13;;
36651;SDS011;53334;51.976;20.144;2024-02-04T12:33:00;20.25;;;4.70;;
36651;SDS011;53334;51.976;20.144;2024-02-04T12:35:35;13.70;;;5.43;;
36651;SDS011;53334;51.976;20.144;2024-02-04T12:38:09;12.82;;;4.15;;
36651;SDS011;53334;51.976;20.144;2024-02-04T12:40:43;13.40;;;4.65;;
36651;SDS011;53334;51.976;20.144;2024-02-04T12:43:18;16.95;;;4.97;;
36651;SDS011;53334;51.976;20.144;2024-02-04T12:45:55;17.23;;;5.30;;
36651;SDS011;53334;51.976;20.144;2024-02-04T12:48:30;29.35;;;5.68;;
36651;SDS011;53334;51.976;20.144;2024-02-04T12:51:04;12.25;;;5.70;;
36651;SDS011;53334;51.976;20.144;2024-02-04T12:53:38;19.23;;;5.57;;
36651;SDS011;53334;51.976;20.144;2024-02-04T12:56:11;23.23;;;6.90;;
36651;SDS011;53334;51.976;20.144;2024-02-04T12:58:46;20.83;;;5.35;;
36651;SDS011;53334;51.976;20.144;2024-02-04T13:01:19;25.25;;;6.60;;
36651;SDS011;53334;51.976;20.144;2024-02-04T13:03:54;19.40;;;6.68;;
36651;SDS011;53334;51.976;20.144;2024-02-04T13:06:28;27.20;;;5.50;;
36651;SDS011;53334;51.976;20.144;2024-02-04T13:09:01;19.63;;;6.70;;
36651;SDS011;53334;51.976;20.144;2024-02-04T13:11:37;25.25;;;6.07;;
36651;SDS011;53334;51.976;20.144;2024-02-04T13:14:12;12.50;;;5.00;;
36651;SDS011;53334;51.976;20.144;2024-02-04T13:16:45;13.82;;;5.47;;
36651;SDS011;53334;51.976;20.144;2024-02-04T13:19:20;16.00;;;5.22;;
36651;SDS011;53334;51.976;20.144;2024-02-04T13:21:53;12.32;;;5.22;;
36651;SDS011;53334;51.976;20.144;2024-02-04T13:24:26;16.60;;;5.00;;
36651;SDS011;53334;51.976;20.144;2024-02-04T13:27:00;9.25;;;4.72;;
36651;SDS011;53334;51.976;20.144;2024-02-04T13:29:36;13.43;;;5.25;;
36651;SDS011;53334;51.976;20.144;2024-02-04T13:32:09;13.70;;;4.80;;
36651;SDS011;53334;51.976;20.144;2024-02-04T13:34:43;8.65;;;4.15;;
36651;SDS011;53334;51.976;20.144;2024-02-04T13:37:16;15.15;;;5.90;;
36651;SDS011;53334;51.976;20.144;2024-02-04T13:39:49;9.93;;;4.63;;
36651;SDS011;53334;51.976;20.144;2024-02-04T13:42:23;11.38;;;4.93;;
36651;SDS011;53334;51.976;20.144;2024-02-04T13:44:57;9.05;;;4.32;;
36651;SDS011;53334;51.976;20.144;2024-02-04T13:47:31;10.63;;;4.68;;
36651;SDS011;53334;51.976;20.144;2024-02-04T13:50:04;21.88;;;5.10;;
36651;SDS011;53334;51.976;20.144;2024-02-04T13:52:40;20.50;;;5.55;;
36651;SDS011;53334;51.976;20.144;2024-02-04T13:55:13;17.67;;;4.80;;
36651;SDS011;53334;51.976;20.144;2024-02-04T13:57:47;10.38;;;4.43;;
36651;SDS011;53334;51.976;20.144;2024-02-04T14:00:21;11.30;;;4.53;;
36651;SDS011;53334;51.976;20.144;2024-02-04T14:02:55;14.55;;;4.50;;
36651;SDS011;53334;51.976;20.144;2024-02-04T14:05:28;8.73;;;3.85;;
36651;SDS011;53334;51.976;20.144;2024-02-04T14:08:01;11.65;;;5.20;;
36651;SDS011;53334;51.976;20.144;2024-02-04T14:10:35;8.52;;;4.78;;
36651;SDS011;53334;51.976;20.144;2024-02-04T14:13:09;9.90;;;4.57;;
36651;SDS011;53334;51.976;20.144;2024-02-04T14:15:45;8.88;;;4.75;;
36651;SDS011;53334;51.976;20.144;2024-02-04T14:18:18;11.05;;;4.80;;
36651;SDS011;53334;51.976;20.144;2024-02-04T14:20:52;6.60;;;4.35;;
36651;SDS011;53334;51.976;20.144;2024-02-04T14:23:25;8.07;;;4.05;;
36651;SDS011;53334;51.976;20.144;2024-02-04T14:25:58;10.52;;;3.95;;
36651;SDS011;53334;51.976;20.144;2024-02-04T14:28:31;7.35;;;4.32;;
36651;SDS011;53334;51.976;20.144;2024-02-04T14:31:09;9.55;;;4.53;;
36651;SDS011;53334;51.976;20.144;2024-02-04T14:33:42;7.35;;;3.97;;
36651;SDS011;53334;51.976;20.144;2024-02-04T14:36:15;10.48;;;4.82;;
36651;SDS011;53334;51.976;20.144;2024-02-04T14:38:49;6.72;;;3.75;;
36651;SDS011;53334;51.976;20.144;2024-02-04T14:41:22;12.05;;;3.95;;
36651;SDS011;53334;51.976;20.144;2024-02-04T14:43:56;11.02;;;4.70;;
36651;SDS011;53334;51.976;20.144;2024-02-04T14:46:30;10.80;;;4.70;;
36651;SDS011;53334;51.976;20.144;2024-02-04T14:49:04;5.72;;;4.18;;
36651;SDS011;53334;51.976;20.144;2024-02-04T14:51:38;8.02;;;4.50;;
36651;SDS011;53334;51.976;20.144;2024-02-04T14:54:12;7.15;;;4.50;;
36651;SDS011;53334;51.976;20.144;2024-02-04T14:56:45;7.03;;;3.30;;
36651;SDS011;53334;51.976;20.144;2024-02-04T14:59:19;7.60;;;4.28;;
36651;SDS011;53334;51.976;20.144;2024-02-04T15:01:55;6.43;;;3.55;;
36651;SDS011;53334;51.976;20.144;2024-02-04T15:04:30;8.80;;;3.72;;
36651;SDS011;53334;51.976;20.144;2024-02-04T15:07:04;6.47;;;4.13;;
36651;SDS011;53334;51.976;20.144;2024-02-04T15:12:12;6.00;;;3.28;;
36651;SDS011;53334;51.976;20.144;2024-02-04T15:14:47;7.10;;;3.60;;
36651;SDS011;53334;51.976;20.144;2024-02-04T15:17:22;6.25;;;3.63;;
36651;SDS011;53334;51.976;20.144;2024-02-04T15:19:56;9.13;;;4.18;;
36651;SDS011;53334;51.976;20.144;2024-02-04T15:22:30;5.70;;;3.20;;
36651;SDS011;53334;51.976;20.144;2024-02-04T15:27:37;5.43;;;3.45;;
36651;SDS011;53334;51.976;20.144;2024-02-04T15:30:11;6.90;;;3.50;;
36651;SDS011;53334;51.976;20.144;2024-02-04T15:32:47;7.35;;;3.80;;
36651;SDS011;53334;51.976;20.144;2024-02-04T15:35:23;7.93;;;3.88;;
36651;SDS011;53334;51.976;20.144;2024-02-04T15:37:57;8.93;;;4.10;;
36651;SDS011;53334;51.976;20.144;2024-02-04T15:40:30;5.72;;;3.90;;
36651;SDS011;53334;51.976;20.144;2024-02-04T15:43:04;5.30;;;3.88;;